Thursday, November 23, 2017, 4:36 AM EST
Back to Local

KFAF, Fort Eustis / Felker

Location: Fort Eustis, VA, United States Lat: 37.133
Local Time: 4:36 AM EST ( 9:36 GMT) Lon: -76.617
Time Zone: US/Eastern Elev: 13 ft

Show me the last for .
Show Decoded

2017-11-23 03:58 METAR KFAF 230858Z AUTO 34004KT 10SM CLR 03/M03 A3014 RMK AO2 SLP210 T00311032
                 58001 $ =
2017-11-23 02:58 METAR KFAF 230758Z AUTO 01007KT 10SM CLR 04/M03 A3014 RMK AO2 SLP210 T00371033 $
                 =
2017-11-23 01:58 METAR KFAF 230658Z AUTO 01006KT 10SM CLR 04/M03 A3014 RMK AO2 SLP210 T00421033 $
                 =
2017-11-23 00:58 METAR KFAF 230558Z AUTO 36006KT 10SM CLR 05/M03 A3014 RMK AO2 SLP210 T00481031
                 10097 20048 50003 $ =
2017-11-22 23:58 METAR KFAF 230458Z AUTO 36009KT 10SM CLR 06/M03 A3015 RMK AO2 SLP213 T00551026
                 401680055 $ =
2017-11-22 22:58 METAR KFAF 230358Z AUTO 36009G16KT 10SM CLR 06/M02 A3015 RMK AO2 SLP213
                 T00621023 $ =
2017-11-22 21:58 METAR KFAF 230258Z AUTO 36010G15KT 10SM CLR 07/M01 A3013 RMK AO2 SLP206
                 T00701014 52022 $ =
2017-11-22 20:58 METAR KFAF 230158Z AUTO 35009G15KT 10SM CLR 08/M01 A3011 RMK AO2 SLP199
                 T00791012 $ =
2017-11-22 19:58 METAR KFAF 230058Z AUTO 35006KT 10SM CLR 09/M01 A3009 RMK AO2 SLP193 T00861008 $
                 =
2017-11-22 18:58 METAR KFAF 222358Z AUTO 35011G17KT 10SM CLR 10/00 A3007 RMK AO2 SLP186 T00971000
                 10168 20097 52031 $ =
2017-11-22 17:58 METAR KFAF 222258Z AUTO 02008KT 10SM CLR 11/01 A3003 RMK AO2 SLP172 T01100011 $
                 =
2017-11-22 16:58 METAR KFAF 222158Z AUTO 01007KT 10SM CLR 13/02 A2999 RMK AO2 SLP159 T01280022 $
                 =
2017-11-22 15:58 METAR KFAF 222058Z AUTO 36007KT 10SM CLR 15/03 A2997 RMK AO2 SLP152 T01490029
                 53016 $ =
2017-11-22 14:58 METAR KFAF 221958Z AUTO 34006KT 10SM CLR 16/03 A2995 RMK AO2 SLP145 T01640034 $
                 =
2017-11-22 13:58 METAR KFAF 221858Z AUTO 32009KT 10SM CLR 17/07 A2993 RMK AO2 SLP138 T01680065 $
                 =
2017-11-22 12:58 METAR KFAF 221758Z AUTO 33007G15KT 10SM CLR 17/08 A2993 RMK AO2 SLP138 60010
                 T01650077 10166 20120 50005 $ =
2017-11-22 11:58 METAR KFAF 221658Z AUTO 34010KT 10SM SCT080 16/09 A2993 RMK AO2 SLP138 T01560087
                 $ =
2017-11-22 10:58 METAR KFAF 221558Z AUTO 35008KT 10SM SCT075 BKN095 14/10 A2993 RMK AO2 SLP138
                 T01440104 $ =
2017-11-22 09:58 METAR KFAF 221458Z AUTO 31009KT 10SM OVC070 14/12 A2991 RMK AO2 SLP132 60010
                 T01370124 50004 $ =
2017-11-22 08:58 METAR KFAF 221358Z AUTO 32005KT 10SM FEW038 SCT055 SCT070 13/12 A2989 RMK AO2
                 RAE02DZB02E29 SLP125 P0001 T01250119 $ =
2017-11-22 08:29 METAR KFAF 221329Z AUTO 31003KT 10SM FEW021 SCT042 12/12 A2990 RMK AO2
                 RAE02DZB02E29 SLP128 =
2017-11-22 07:58 METAR KFAF 221258Z AUTO 29004KT 5SM -RA BR SCT022 SCT029 OVC035 12/11 A2990 RMK
                 AO2 RAE42DZB42E45RAB45 SLP128 P0009 T01200113 $ =
2017-11-22 06:58 METAR KFAF 221158Z AUTO 31005KT 10SM -RA BKN015 OVC090 12/11 A2990 RMK AO2
                 DZE00DZB47E51RAB51 CIG 015V090 BKN V SCT SLP128 P0000 60000 T01230109 10146
                 20122 50005 $ =
2017-11-22 06:47 METAR KFAF 221147Z AUTO 30007KT 10SM -DZ SCT015 BKN090 12/11 A2990 RMK AO2
                 DZE00DZB47 SLP128 =
2017-11-22 06:00 METAR KFAF 221100Z AUTO 30004KT 10SM FEW041 BKN095 12/11 A2990 RMK AO2 DZE00
                 SLP128 $ =
2017-11-22 05:58 METAR KFAF 221058Z AUTO 31004KT 10SM -DZ FEW041 SCT100 12/11 A2990 RMK AO2 DZB45
                 SLP128 P0000 T01240108 $ =
2017-11-22 05:45 METAR KFAF 221045Z AUTO 31004KT 10SM -DZ SCT042 SCT055 13/11 A2989 RMK AO2 DZB45
                 SLP125 =
2017-11-22 04:58 METAR KFAF 220958Z AUTO 30009KT 10SM FEW013 OVC095 12/11 A2990 RMK AO2 SLP128
                 T01220112 $ =

Support USWX by starting your Amazon purchase here.